sensor_id;sensor_type;location;lat;lon;timestamp;pressure;altitude;pressure_sealevel;temperature;humidity
21980;BME280;11154;48.558;9.234;2024-01-15T00:01:15;96486.72;;;14.75;28.01
21980;BME280;11154;48.558;9.234;2024-01-15T00:03:17;96484.00;;;14.82;28.01
21980;BME280;11154;48.558;9.234;2024-01-15T00:05:20;96471.84;;;14.86;28.14
21980;BME280;11154;48.558;9.234;2024-01-15T00:07:21;96471.22;;;14.90;27.94
21980;BME280;11154;48.558;9.234;2024-01-15T00:09:23;96474.88;;;14.96;27.93
21980;BME280;11154;48.558;9.234;2024-01-15T00:11:25;96476.09;;;15.00;27.83
21980;BME280;11154;48.558;9.234;2024-01-15T00:13:27;96475.66;;;15.03;28.17
21980;BME280;11154;48.558;9.234;2024-01-15T00:15:31;96467.22;;;15.06;28.18
21980;BME280;11154;48.558;9.234;2024-01-15T00:17:32;96473.16;;;15.08;28.04
21980;BME280;11154;48.558;9.234;2024-01-15T00:19:34;96464.88;;;15.15;28.15
21980;BME280;11154;48.558;9.234;2024-01-15T00:21:36;96462.38;;;15.20;28.06
21980;BME280;11154;48.558;9.234;2024-01-15T00:23:42;96466.88;;;15.26;28.07
21980;BME280;11154;48.558;9.234;2024-01-15T00:25:44;96461.50;;;15.33;27.88
21980;BME280;11154;48.558;9.234;2024-01-15T00:27:45;96458.19;;;15.37;27.64
21980;BME280;11154;48.558;9.234;2024-01-15T00:29:49;96454.03;;;15.41;27.65
21980;BME280;11154;48.558;9.234;2024-01-15T00:31:52;96453.78;;;15.43;27.64
21980;BME280;11154;48.558;9.234;2024-01-15T00:33:54;96467.00;;;15.44;27.82
21980;BME280;11154;48.558;9.234;2024-01-15T00:35:55;96467.59;;;15.46;27.56
21980;BME280;11154;48.558;9.234;2024-01-15T00:37:58;96457.69;;;15.47;27.70
21980;BME280;11154;48.558;9.234;2024-01-15T00:40:00;96464.09;;;15.46;27.68
21980;BME280;11154;48.558;9.234;2024-01-15T00:42:01;96462.22;;;15.46;27.65
21980;BME280;11154;48.558;9.234;2024-01-15T00:44:03;96462.22;;;15.46;27.66
21980;BME280;11154;48.558;9.234;2024-01-15T00:46:05;96458.13;;;15.44;27.67
21980;BME280;11154;48.558;9.234;2024-01-15T00:48:07;96456.94;;;15.40;27.68
21980;BME280;11154;48.558;9.234;2024-01-15T00:50:09;96447.47;;;15.37;27.81
21980;BME280;11154;48.558;9.234;2024-01-15T00:52:11;96449.53;;;15.35;27.62
21980;BME280;11154;48.558;9.234;2024-01-15T00:54:14;96451.59;;;15.33;27.92
21980;BME280;11154;48.558;9.234;2024-01-15T00:56:17;96445.66;;;15.31;27.85
21980;BME280;11154;48.558;9.234;2024-01-15T00:58:19;96439.69;;;15.29;27.93
21980;BME280;11154;48.558;9.234;2024-01-15T01:00:21;96441.34;;;15.30;27.86
21980;BME280;11154;48.558;9.234;2024-01-15T01:02:23;96434.56;;;15.28;27.81
21980;BME280;11154;48.558;9.234;2024-01-15T01:04:24;96440.09;;;15.26;28.02
21980;BME280;11154;48.558;9.234;2024-01-15T01:06:25;96429.41;;;15.26;27.92
21980;BME280;11154;48.558;9.234;2024-01-15T01:08:27;96436.41;;;15.27;28.03
21980;BME280;11154;48.558;9.234;2024-01-15T01:10:34;96438.84;;;15.29;27.91
21980;BME280;11154;48.558;9.234;2024-01-15T01:12:36;96438.84;;;15.29;27.84
21980;BME280;11154;48.558;9.234;2024-01-15T01:14:37;96439.25;;;15.32;28.04
21980;BME280;11154;48.558;9.234;2024-01-15T01:16:38;96445.03;;;15.29;28.10
21980;BME280;11154;48.558;9.234;2024-01-15T01:18:41;96451.19;;;15.36;28.18
21980;BME280;11154;48.558;9.234;2024-01-15T01:20:43;96439.22;;;15.39;28.14
21980;BME280;11154;48.558;9.234;2024-01-15T01:22:44;96442.06;;;15.44;28.15
21980;BME280;11154;48.558;9.234;2024-01-15T01:24:46;96445.72;;;15.49;28.06
21980;BME280;11154;48.558;9.234;2024-01-15T01:26:48;96446.31;;;15.51;28.04
21980;BME280;11154;48.558;9.234;2024-01-15T01:28:50;96446.28;;;15.58;27.98
21980;BME280;11154;48.558;9.234;2024-01-15T01:30:52;96450.75;;;15.64;27.93
21980;BME280;11154;48.558;9.234;2024-01-15T01:32:53;96454.22;;;15.71;27.90
21980;BME280;11154;48.558;9.234;2024-01-15T01:34:55;96453.56;;;15.75;27.79
21980;BME280;11154;48.558;9.234;2024-01-15T01:36:57;96456.25;;;15.75;27.66
21980;BME280;11154;48.558;9.234;2024-01-15T01:38:58;96448.97;;;15.82;27.78
21980;BME280;11154;48.558;9.234;2024-01-15T01:41:00;96449.13;;;15.87;27.58
21980;BME280;11154;48.558;9.234;2024-01-15T01:43:04;96449.03;;;15.93;27.55
21980;BME280;11154;48.558;9.234;2024-01-15T01:45:07;96437.88;;;15.96;27.38
21980;BME280;11154;48.558;9.234;2024-01-15T01:47:08;96439.69;;;16.02;27.48
21980;BME280;11154;48.558;9.234;2024-01-15T01:49:10;96429.94;;;16.08;27.39
21980;BME280;11154;48.558;9.234;2024-01-15T01:51:12;96441.63;;;16.13;27.26
21980;BME280;11154;48.558;9.234;2024-01-15T01:53:13;96437.69;;;16.16;27.19
21980;BME280;11154;48.558;9.234;2024-01-15T01:55:16;96439.69;;;16.20;27.29
21980;BME280;11154;48.558;9.234;2024-01-15T01:57:18;96440.06;;;16.24;27.06
21980;BME280;11154;48.558;9.234;2024-01-15T01:59:23;96445.22;;;16.25;27.09
21980;BME280;11154;48.558;9.234;2024-01-15T02:01:25;96439.66;;;16.27;26.97
21980;BME280;11154;48.558;9.234;2024-01-15T02:03:27;96440.25;;;16.29;26.95
21980;BME280;11154;48.558;9.234;2024-01-15T02:05:30;96443.09;;;16.34;26.97
21980;BME280;11154;48.558;9.234;2024-01-15T02:07:34;96442.03;;;16.35;27.19
21980;BME280;11154;48.558;9.234;2024-01-15T02:09:36;96434.59;;;16.37;26.95
21980;BME280;11154;48.558;9.234;2024-01-15T02:11:38;96438.69;;;16.39;26.93
21980;BME280;11154;48.558;9.234;2024-01-15T02:13:39;96441.63;;;16.38;26.72
21980;BME280;11154;48.558;9.234;2024-01-15T02:15:43;96431.91;;;16.37;26.72
21980;BME280;11154;48.558;9.234;2024-01-15T02:17:58;96435.63;;;16.36;26.67
21980;BME280;11154;48.558;9.234;2024-01-15T02:19:58;96435.63;;;16.36;26.37
21980;BME280;11154;48.558;9.234;2024-01-15T02:22:00;96425.75;;;16.36;26.18
21980;BME280;11154;48.558;9.234;2024-01-15T02:24:04;96428.19;;;16.38;26.47
21980;BME280;11154;48.558;9.234;2024-01-15T02:26:06;96426.31;;;16.38;26.80
21980;BME280;11154;48.558;9.234;2024-01-15T02:28:10;96432.53;;;16.39;27.14
21980;BME280;11154;48.558;9.234;2024-01-15T02:30:12;96425.94;;;16.35;27.33
21980;BME280;11154;48.558;9.234;2024-01-15T02:32:14;96425.13;;;16.34;27.16
21980;BME280;11154;48.558;9.234;2024-01-15T02:34:16;96426.41;;;16.32;27.10
21980;BME280;11154;48.558;9.234;2024-01-15T02:36:17;96436.53;;;16.30;26.85
21980;BME280;11154;48.558;9.234;2024-01-15T02:38:19;96424.59;;;16.26;26.92
21980;BME280;11154;48.558;9.234;2024-01-15T02:40:21;96419.66;;;16.23;26.83
21980;BME280;11154;48.558;9.234;2024-01-15T02:42:23;96422.81;;;16.20;26.92
21980;BME280;11154;48.558;9.234;2024-01-15T02:44:24;96419.50;;;16.18;27.04
21980;BME280;11154;48.558;9.234;2024-01-15T02:46:26;96423.69;;;16.14;26.78
21980;BME280;11154;48.558;9.234;2024-01-15T02:48:26;96413.78;;;16.14;26.85
21980;BME280;11154;48.558;9.234;2024-01-15T02:50:28;96413.53;;;16.16;26.96
21980;BME280;11154;48.558;9.234;2024-01-15T02:52:29;96414.94;;;16.18;26.89
21980;BME280;11154;48.558;9.234;2024-01-15T02:54:30;96413.72;;;16.21;26.93
21980;BME280;11154;48.558;9.234;2024-01-15T02:56:34;96417.81;;;16.23;27.23
21980;BME280;11154;48.558;9.234;2024-01-15T02:58:35;96421.91;;;16.26;26.83
21980;BME280;11154;48.558;9.234;2024-01-15T03:00:36;96423.97;;;16.30;27.09
21980;BME280;11154;48.558;9.234;2024-01-15T03:02:38;96414.84;;;16.31;26.91
21980;BME280;11154;48.558;9.234;2024-01-15T03:04:43;96419.53;;;16.36;26.97
21980;BME280;11154;48.558;9.234;2024-01-15T03:06:44;96416.19;;;16.40;26.79
21980;BME280;11154;48.558;9.234;2024-01-15T03:08:45;96422.97;;;16.43;26.53
21980;BME280;11154;48.558;9.234;2024-01-15T03:10:46;96420.91;;;16.45;26.89
21980;BME280;11154;48.558;9.234;2024-01-15T03:12:48;96414.25;;;16.47;26.77
21980;BME280;11154;48.558;9.234;2024-01-15T03:14:50;96416.72;;;16.49;26.90
21980;BME280;11154;48.558;9.234;2024-01-15T03:16:54;96411.72;;;16.52;26.89
21980;BME280;11154;48.558;9.234;2024-01-15T03:18:56;96416.28;;;16.52;26.89
21980;BME280;11154;48.558;9.234;2024-01-15T03:20:58;96410.91;;;16.52;26.86
21980;BME280;11154;48.558;9.234;2024-01-15T03:23:01;96403.28;;;16.49;26.99
21980;BME280;11154;48.558;9.234;2024-01-15T03:25:03;96408.22;;;16.52;27.00
21980;BME280;11154;48.558;9.234;2024-01-15T03:27:04;96405.53;;;16.52;26.83
21980;BME280;11154;48.558;9.234;2024-01-15T03:29:07;96395.84;;;16.51;26.94
21980;BME280;11154;48.558;9.234;2024-01-15T03:31:09;96401.81;;;16.53;26.97
21980;BME280;11154;48.558;9.234;2024-01-15T03:33:11;96386.53;;;16.53;26.97
21980;BME280;11154;48.558;9.234;2024-01-15T03:35:12;96388.97;;;16.55;26.76
21980;BME280;11154;48.558;9.234;2024-01-15T03:37:14;96383.59;;;16.55;26.70
21980;BME280;11154;48.558;9.234;2024-01-15T03:39:15;96386.88;;;16.57;27.00
21980;BME280;11154;48.558;9.234;2024-01-15T03:41:17;96379.63;;;16.57;26.86
21980;BME280;11154;48.558;9.234;2024-01-15T03:43:18;96379.06;;;16.55;26.73
21980;BME280;11154;48.558;9.234;2024-01-15T03:45:21;96373.69;;;16.55;26.78
21980;BME280;11154;48.558;9.234;2024-01-15T03:47:22;96374.06;;;16.59;26.92
21980;BME280;11154;48.558;9.234;2024-01-15T03:49:24;96391.34;;;16.63;26.96
21980;BME280;11154;48.558;9.234;2024-01-15T03:51:25;96386.34;;;16.66;26.85
21980;BME280;11154;48.558;9.234;2024-01-15T03:53:26;96391.47;;;16.67;26.83
21980;BME280;11154;48.558;9.234;2024-01-15T03:55:28;96376.34;;;16.73;26.90
21980;BME280;11154;48.558;9.234;2024-01-15T03:57:30;96379.16;;;16.78;26.94
21980;BME280;11154;48.558;9.234;2024-01-15T03:59:31;96360.88;;;16.86;26.64
21980;BME280;11154;48.558;9.234;2024-01-15T04:01:34;96356.81;;;16.95;26.70
21980;BME280;11154;48.558;9.234;2024-01-15T04:03:36;96372.38;;;17.05;26.58
21980;BME280;11154;48.558;9.234;2024-01-15T04:05:38;96368.91;;;17.16;26.65
21980;BME280;11154;48.558;9.234;2024-01-15T04:07:40;96369.97;;;17.26;26.36
21980;BME280;11154;48.558;9.234;2024-01-15T04:09:41;96374.56;;;17.37;26.55
21980;BME280;11154;48.558;9.234;2024-01-15T04:11:46;96387.25;;;17.48;26.31
21980;BME280;11154;48.558;9.234;2024-01-15T04:13:46;96383.13;;;17.57;26.15
21980;BME280;11154;48.558;9.234;2024-01-15T04:15:48;96386.31;;;17.65;26.09
21980;BME280;11154;48.558;9.234;2024-01-15T04:17:52;96388.91;;;17.72;25.81
21980;BME280;11154;48.558;9.234;2024-01-15T04:19:53;96381.53;;;17.79;25.99
21980;BME280;11154;48.558;9.234;2024-01-15T04:21:55;96379.41;;;17.81;25.79
21980;BME280;11154;48.558;9.234;2024-01-15T04:23:59;96383.84;;;17.87;25.77
21980;BME280;11154;48.558;9.234;2024-01-15T04:26:01;96384.00;;;17.92;25.74
21980;BME280;11154;48.558;9.234;2024-01-15T04:28:05;96376.47;;;17.94;25.77
21980;BME280;11154;48.558;9.234;2024-01-15T04:30:07;96387.25;;;17.94;25.67
21980;BME280;11154;48.558;9.234;2024-01-15T04:32:09;96388.88;;;17.95;25.79
21980;BME280;11154;48.558;9.234;2024-01-15T04:34:11;96385.16;;;17.96;25.86
21980;BME280;11154;48.558;9.234;2024-01-15T04:36:13;96391.34;;;17.96;25.72
21980;BME280;11154;48.558;9.234;2024-01-15T04:38:14;96397.06;;;18.00;25.88
21980;BME280;11154;48.558;9.234;2024-01-15T04:40:16;96397.41;;;18.03;25.96
21980;BME280;11154;48.558;9.234;2024-01-15T04:42:17;96390.75;;;18.06;25.88
21980;BME280;11154;48.558;9.234;2024-01-15T04:44:18;96393.56;;;18.10;25.66
21980;BME280;11154;48.558;9.234;2024-01-15T04:46:20;96400.09;;;18.14;25.68
21980;BME280;11154;48.558;9.234;2024-01-15T04:48:22;96393.69;;;18.15;25.79
21980;BME280;11154;48.558;9.234;2024-01-15T04:50:25;96380.22;;;18.15;25.62
21980;BME280;11154;48.558;9.234;2024-01-15T04:52:27;96390.16;;;18.15;25.81
21980;BME280;11154;48.558;9.234;2024-01-15T04:54:29;96384.44;;;18.11;25.69
21980;BME280;11154;48.558;9.234;2024-01-15T04:56:30;96378.72;;;18.08;25.88
21980;BME280;11154;48.558;9.234;2024-01-15T04:58:31;96373.00;;;18.05;25.75
21980;BME280;11154;48.558;9.234;2024-01-15T05:00:32;96371.00;;;18.00;25.90
21980;BME280;11154;48.558;9.234;2024-01-15T05:02:34;96367.59;;;17.93;25.66
21980;BME280;11154;48.558;9.234;2024-01-15T05:04:36;96366.09;;;17.86;25.75
21980;BME280;11154;48.558;9.234;2024-01-15T05:06:39;96366.78;;;17.81;25.84
21980;BME280;11154;48.558;9.234;2024-01-15T05:08:41;96367.72;;;17.75;25.86
21980;BME280;11154;48.558;9.234;2024-01-15T05:10:42;96365.16;;;17.69;26.29
21980;BME280;11154;48.558;9.234;2024-01-15T05:12:43;96370.66;;;17.62;26.88
21980;BME280;11154;48.558;9.234;2024-01-15T05:14:45;96362.91;;;17.54;27.14
21980;BME280;11154;48.558;9.234;2024-01-15T05:16:47;96364.66;;;17.49;27.16
21980;BME280;11154;48.558;9.234;2024-01-15T05:18:49;96351.00;;;17.39;26.89
21980;BME280;11154;48.558;9.234;2024-01-15T05:20:51;96350.28;;;17.32;26.92
21980;BME280;11154;48.558;9.234;2024-01-15T05:22:54;96352.84;;;17.27;26.83
21980;BME280;11154;48.558;9.234;2024-01-15T05:24:54;96347.75;;;17.19;26.97
21980;BME280;11154;48.558;9.234;2024-01-15T05:26:56;96346.34;;;17.17;26.73
21980;BME280;11154;48.558;9.234;2024-01-15T05:28:58;96351.72;;;17.17;26.93
21980;BME280;11154;48.558;9.234;2024-01-15T05:30:59;96337.50;;;17.16;26.66
21980;BME280;11154;48.558;9.234;2024-01-15T05:33:01;96344.97;;;17.14;26.80
21980;BME280;11154;48.558;9.234;2024-01-15T05:35:04;96349.72;;;17.12;26.70
21980;BME280;11154;48.558;9.234;2024-01-15T05:37:06;96342.72;;;17.11;26.76
21980;BME280;11154;48.558;9.234;2024-01-15T05:39:09;96336.91;;;17.14;27.02
21980;BME280;11154;48.558;9.234;2024-01-15T05:41:10;96333.72;;;17.17;26.87
21980;BME280;11154;48.558;9.234;2024-01-15T05:43:13;96343.44;;;17.18;26.83
21980;BME280;11154;48.558;9.234;2024-01-15T05:45:15;96348.34;;;17.21;26.82
21980;BME280;11154;48.558;9.234;2024-01-15T05:47:15;96355.75;;;17.26;26.73
21980;BME280;11154;48.558;9.234;2024-01-15T05:49:18;96355.88;;;17.31;26.99
21980;BME280;11154;48.558;9.234;2024-01-15T05:51:19;96353.75;;;17.33;27.13
21980;BME280;11154;48.558;9.234;2024-01-15T05:53:21;96353.91;;;17.38;26.92
21980;BME280;11154;48.558;9.234;2024-01-15T05:55:24;96350.50;;;17.42;26.87
21980;BME280;11154;48.558;9.234;2024-01-15T05:57:26;96351.94;;;17.44;26.86
21980;BME280;11154;48.558;9.234;2024-01-15T05:59:28;96356.84;;;17.47;26.85
21980;BME280;11154;48.558;9.234;2024-01-15T06:01:32;96365.72;;;17.48;26.66
21980;BME280;11154;48.558;9.234;2024-01-15T06:03:34;96360.13;;;17.49;27.29
21980;BME280;11154;48.558;9.234;2024-01-15T06:05:35;96356.47;;;17.44;28.08
21980;BME280;11154;48.558;9.234;2024-01-15T06:07:37;96363.38;;;17.40;27.76
21980;BME280;11154;48.558;9.234;2024-01-15T06:09:39;96365.72;;;17.37;27.53
21980;BME280;11154;48.558;9.234;2024-01-15T06:11:42;96356.44;;;17.33;27.19
21980;BME280;11154;48.558;9.234;2024-01-15T06:13:43;96350.72;;;17.29;26.87
21980;BME280;11154;48.558;9.234;2024-01-15T06:15:45;96347.47;;;17.27;27.29
21980;BME280;11154;48.558;9.234;2024-01-15T06:17:47;96336.09;;;17.25;27.24
21980;BME280;11154;48.558;9.234;2024-01-15T06:19:49;96339.81;;;17.24;27.35
21980;BME280;11154;48.558;9.234;2024-01-15T06:21:50;96336.78;;;17.21;27.35
21980;BME280;11154;48.558;9.234;2024-01-15T06:23:51;96336.56;;;17.22;27.04
21980;BME280;11154;48.558;9.234;2024-01-15T06:25:53;96336.47;;;17.29;27.14
21980;BME280;11154;48.558;9.234;2024-01-15T06:27:56;96328.88;;;17.26;26.78
21980;BME280;11154;48.558;9.234;2024-01-15T06:29:57;96331.69;;;17.31;27.03
21980;BME280;11154;48.558;9.234;2024-01-15T06:31:58;96328.78;;;17.32;26.64
21980;BME280;11154;48.558;9.234;2024-01-15T06:34:00;96320.25;;;17.35;26.72
21980;BME280;11154;48.558;9.234;2024-01-15T06:36:02;96325.97;;;17.38;26.83
21980;BME280;11154;48.558;9.234;2024-01-15T06:38:03;96317.69;;;17.40;26.50
21980;BME280;11154;48.558;9.234;2024-01-15T06:40:06;96320.38;;;17.40;26.44
21980;BME280;11154;48.558;9.234;2024-01-15T06:42:08;96312.53;;;17.38;26.35
21980;BME280;11154;48.558;9.234;2024-01-15T06:44:10;96317.69;;;17.40;26.35
21980;BME280;11154;48.558;9.234;2024-01-15T06:46:12;96314.31;;;17.44;26.36
21980;BME280;11154;48.558;9.234;2024-01-15T06:48:13;96322.50;;;17.49;26.30
21980;BME280;11154;48.558;9.234;2024-01-15T06:50:16;96305.06;;;17.52;26.12
21980;BME280;11154;48.558;9.234;2024-01-15T06:52:18;96311.16;;;17.59;26.25
21980;BME280;11154;48.558;9.234;2024-01-15T06:54:22;96307.97;;;17.62;26.41
21980;BME280;11154;48.558;9.234;2024-01-15T06:56:23;96311.38;;;17.69;26.97
21980;BME280;11154;48.558;9.234;2024-01-15T06:58:25;96309.88;;;17.73;26.94
21980;BME280;11154;48.558;9.234;2024-01-15T07:00:29;96300.03;;;17.78;26.48
21980;BME280;11154;48.558;9.234;2024-01-15T07:02:33;96294.53;;;17.85;26.58
21980;BME280;11154;48.558;9.234;2024-01-15T07:04:34;96311.81;;;17.89;26.48
21980;BME280;11154;48.558;9.234;2024-01-15T07:06:36;96306.53;;;17.94;25.96
21980;BME280;11154;48.558;9.234;2024-01-15T07:08:38;96309.38;;;17.99;25.80
21980;BME280;11154;48.558;9.234;2024-01-15T07:10:39;96311.31;;;18.03;25.65
21980;BME280;11154;48.558;9.234;2024-01-15T07:12:42;96308.75;;;18.08;25.71
21980;BME280;11154;48.558;9.234;2024-01-15T07:14:44;96306.28;;;18.07;25.50
21980;BME280;11154;48.558;9.234;2024-01-15T07:16:46;96309.31;;;18.10;25.65
21980;BME280;11154;48.558;9.234;2024-01-15T07:18:47;96298.81;;;18.08;25.71
21980;BME280;11154;48.558;9.234;2024-01-15T07:20:49;96299.25;;;18.06;25.63
21980;BME280;11154;48.558;9.234;2024-01-15T07:22:51;96297.31;;;18.01;25.53
21980;BME280;11154;48.558;9.234;2024-01-15T07:24:52;96292.88;;;17.95;25.48
21980;BME280;11154;48.558;9.234;2024-01-15T07:26:54;96293.00;;;17.89;25.53
21980;BME280;11154;48.558;9.234;2024-01-15T07:28:56;96299.81;;;17.80;25.74
21980;BME280;11154;48.558;9.234;2024-01-15T07:30:58;96296.97;;;17.75;25.74
21980;BME280;11154;48.558;9.234;2024-01-15T07:33:03;96301.09;;;17.66;25.93
21980;BME280;11154;48.558;9.234;2024-01-15T07:35:05;96300.75;;;17.62;25.84
21980;BME280;11154;48.558;9.234;2024-01-15T07:37:06;96307.88;;;17.57;26.05
21980;BME280;11154;48.558;9.234;2024-01-15T07:39:08;96302.03;;;17.60;26.25
21980;BME280;11154;48.558;9.234;2024-01-15T07:41:13;96310.09;;;17.60;25.95
21980;BME280;11154;48.558;9.234;2024-01-15T07:43:14;96299.81;;;17.57;25.83
21980;BME280;11154;48.558;9.234;2024-01-15T07:45:16;96302.97;;;17.54;26.00
21980;BME280;11154;48.558;9.234;2024-01-15T07:47:18;96299.44;;;17.53;26.03
21980;BME280;11154;48.558;9.234;2024-01-15T07:49:21;96297.59;;;17.54;25.93
21980;BME280;11154;48.558;9.234;2024-01-15T07:51:24;96305.66;;;17.54;25.92
21980;BME280;11154;48.558;9.234;2024-01-15T07:53:25;96302.38;;;17.52;25.89
21980;BME280;11154;48.558;9.234;2024-01-15T07:55:28;96297.47;;;17.49;25.84
21980;BME280;11154;48.558;9.234;2024-01-15T07:57:29;96299.59;;;17.47;25.89
21980;BME280;11154;48.558;9.234;2024-01-15T07:59:30;96295.50;;;17.44;25.97
21980;BME280;11154;48.558;9.234;2024-01-15T08:01:31;96291.63;;;17.40;25.69
21980;BME280;11154;48.558;9.234;2024-01-15T08:03:33;96298.53;;;17.37;25.93
21980;BME280;11154;48.558;9.234;2024-01-15T08:05:36;96305.16;;;16.82;26.28
21980;BME280;11154;48.558;9.234;2024-01-15T08:07:37;96306.91;;;16.47;26.64
21980;BME280;11154;48.558;9.234;2024-01-15T08:09:38;96300.72;;;16.47;26.65
21980;BME280;11154;48.558;9.234;2024-01-15T08:11:39;96301.13;;;16.32;26.85
21980;BME280;11154;48.558;9.234;2024-01-15T08:13:42;96296.50;;;16.21;27.02
21980;BME280;11154;48.558;9.234;2024-01-15T08:15:43;96295.69;;;16.03;27.24
21980;BME280;11154;48.558;9.234;2024-01-15T08:17:45;96293.91;;;15.61;27.55
21980;BME280;11154;48.558;9.234;2024-01-15T08:19:47;96286.88;;;15.18;28.09
21980;BME280;11154;48.558;9.234;2024-01-15T08:21:50;96280.28;;;14.65;29.18
21980;BME280;11154;48.558;9.234;2024-01-15T08:23:51;96285.91;;;14.27;29.75
21980;BME280;11154;48.558;9.234;2024-01-15T08:25:53;96286.59;;;14.09;30.11
21980;BME280;11154;48.558;9.234;2024-01-15T08:27:56;96284.19;;;13.95;30.50
21980;BME280;11154;48.558;9.234;2024-01-15T08:29:57;96282.22;;;13.77;30.70
21980;BME280;11154;48.558;9.234;2024-01-15T08:31:59;96279.13;;;13.68;30.77
21980;BME280;11154;48.558;9.234;2024-01-15T08:34:01;96283.50;;;13.56;30.98
21980;BME280;11154;48.558;9.234;2024-01-15T08:36:03;96281.03;;;13.48;31.42
21980;BME280;11154;48.558;9.234;2024-01-15T08:38:07;96278.19;;;13.43;31.42
21980;BME280;11154;48.558;9.234;2024-01-15T08:40:10;96289.72;;;13.30;31.63
21980;BME280;11154;48.558;9.234;2024-01-15T08:42:11;96295.06;;;13.24;31.66
21980;BME280;11154;48.558;9.234;2024-01-15T08:44:12;96301.00;;;13.19;31.69
21980;BME280;11154;48.558;9.234;2024-01-15T08:46:14;96291.19;;;13.20;31.68
21980;BME280;11154;48.558;9.234;2024-01-15T08:48:16;96301.84;;;13.20;31.57
21980;BME280;11154;48.558;9.234;2024-01-15T08:50:17;96304.34;;;13.15;31.79
21980;BME280;11154;48.558;9.234;2024-01-15T08:52:19;96301.84;;;13.13;32.04
21980;BME280;11154;48.558;9.234;2024-01-15T08:54:22;96297.94;;;13.16;31.88
21980;BME280;11154;48.558;9.234;2024-01-15T08:56:23;96297.75;;;13.11;31.69
21980;BME280;11154;48.558;9.234;2024-01-15T08:58:24;96305.75;;;13.11;32.07
21980;BME280;11154;48.558;9.234;2024-01-15T09:00:26;96299.59;;;13.10;32.07
21980;BME280;11154;48.558;9.234;2024-01-15T09:02:27;96301.44;;;13.10;31.80
21980;BME280;11154;48.558;9.234;2024-01-15T09:04:28;96294.06;;;13.12;31.69
21980;BME280;11154;48.558;9.234;2024-01-15T09:06:30;96294.69;;;13.14;31.69
21980;BME280;11154;48.558;9.234;2024-01-15T09:08:35;96290.97;;;13.15;31.84
21980;BME280;11154;48.558;9.234;2024-01-15T09:10:38;96293.84;;;13.20;31.69
21980;BME280;11154;48.558;9.234;2024-01-15T09:12:41;96285.41;;;13.23;31.47
21980;BME280;11154;48.558;9.234;2024-01-15T09:14:42;96303.91;;;13.24;31.27
21980;BME280;11154;48.558;9.234;2024-01-15T09:16:44;96308.41;;;13.24;31.18
21980;BME280;11154;48.558;9.234;2024-01-15T09:18:47;96310.06;;;13.25;31.21
21980;BME280;11154;48.558;9.234;2024-01-15T09:20:50;96305.94;;;13.29;31.08
21980;BME280;11154;48.558;9.234;2024-01-15T09:22:52;96298.16;;;13.34;31.34
21980;BME280;11154;48.558;9.234;2024-01-15T09:24:54;96295.03;;;13.37;31.38
21980;BME280;11154;48.558;9.234;2024-01-15T09:26:57;96291.97;;;13.40;31.06
21980;BME280;11154;48.558;9.234;2024-01-15T09:28:59;96284.56;;;13.42;31.10
21980;BME280;11154;48.558;9.234;2024-01-15T09:31:01;96279.22;;;13.48;31.06
21980;BME280;11154;48.558;9.234;2024-01-15T09:33:03;96266.03;;;13.53;30.96
21980;BME280;11154;48.558;9.234;2024-01-15T09:35:04;96262.13;;;13.56;30.96
21980;BME280;11154;48.558;9.234;2024-01-15T09:37:06;96270.31;;;13.61;30.81
21980;BME280;11154;48.558;9.234;2024-01-15T09:39:08;96261.72;;;13.59;30.84
21980;BME280;11154;48.558;9.234;2024-01-15T09:41:12;96268.91;;;13.65;30.84
21980;BME280;11154;48.558;9.234;2024-01-15T09:43:16;96265.19;;;13.66;30.72
21980;BME280;11154;48.558;9.234;2024-01-15T09:45:18;96259.59;;;13.73;30.68
21980;BME280;11154;48.558;9.234;2024-01-15T09:47:20;96256.50;;;13.76;30.48
21980;BME280;11154;48.558;9.234;2024-01-15T09:49:23;96252.59;;;13.79;30.54
21980;BME280;11154;48.558;9.234;2024-01-15T09:51:24;96258.94;;;13.84;30.67
21980;BME280;11154;48.558;9.234;2024-01-15T09:53:26;96262.63;;;13.90;30.50
21980;BME280;11154;48.558;9.234;2024-01-15T09:55:28;96251.28;;;13.94;30.35
21980;BME280;11154;48.558;9.234;2024-01-15T09:57:31;96247.38;;;13.97;30.25
21980;BME280;11154;48.558;9.234;2024-01-15T09:59:36;96238.88;;;14.06;30.33
21980;BME280;11154;48.558;9.234;2024-01-15T10:01:40;96238.69;;;14.14;29.82
21980;BME280;11154;48.558;9.234;2024-01-15T10:03:42;96239.88;;;14.18;29.01
21980;BME280;11154;48.558;9.234;2024-01-15T10:05:44;96235.75;;;14.22;28.67
21980;BME280;11154;48.558;9.234;2024-01-15T10:07:46;96233.25;;;14.27;28.94
21980;BME280;11154;48.558;9.234;2024-01-15T10:09:50;96227.84;;;14.34;28.63
21980;BME280;11154;48.558;9.234;2024-01-15T10:11:52;96230.50;;;14.40;28.36
21980;BME280;11154;48.558;9.234;2024-01-15T10:13:54;96234.38;;;14.44;28.67
21980;BME280;11154;48.558;9.234;2024-01-15T10:16:00;96223.63;;;14.50;28.48
21980;BME280;11154;48.558;9.234;2024-01-15T10:18:04;96234.09;;;14.52;28.59
21980;BME280;11154;48.558;9.234;2024-01-15T10:20:08;96228.53;;;14.53;28.73
21980;BME280;11154;48.558;9.234;2024-01-15T10:22:10;96207.72;;;14.62;28.64
21980;BME280;11154;48.558;9.234;2024-01-15T10:24:12;96208.03;;;14.72;28.29
21980;BME280;11154;48.558;9.234;2024-01-15T10:26:13;96206.72;;;14.81;28.11
21980;BME280;11154;48.558;9.234;2024-01-15T10:28:15;96216.69;;;14.92;27.82
21980;BME280;11154;48.558;9.234;2024-01-15T10:30:17;96206.75;;;14.99;27.78
21980;BME280;11154;48.558;9.234;2024-01-15T10:32:20;96204.22;;;15.04;27.55
21980;BME280;11154;48.558;9.234;2024-01-15T10:34:24;96202.91;;;15.13;27.75
21980;BME280;11154;48.558;9.234;2024-01-15T10:36:26;96195.03;;;15.17;27.63
21980;BME280;11154;48.558;9.234;2024-01-15T10:38:28;96194.16;;;15.23;27.36
21980;BME280;11154;48.558;9.234;2024-01-15T10:40:29;96195.34;;;15.27;27.51
21980;BME280;11154;48.558;9.234;2024-01-15T10:42:31;96194.47;;;15.33;27.41
21980;BME280;11154;48.558;9.234;2024-01-15T10:44:32;96195.81;;;15.42;27.53
21980;BME280;11154;48.558;9.234;2024-01-15T10:46:34;96185.38;;;15.52;27.69